Time;durP1;ratioP1;P1;durP2;ratioP2;P2;SDS_P1;SDS_P2;PMS_P1;PMS_P2;Temp;Humidity;BMP_temperature;BMP_pressure;BME280_temperature;BME280_humidity;BME280_pressure;Samples;Min_cycle;Max_cycle;Signal;HPM_P1;HPM_P2
2023/09/26 00:00:09;;;;;;;9.93;8.43;;;15.30;99.90;;;;;;5035855;28;20042;-58
2023/09/26 00:02:35;;;;;;;9.13;8.23;;;15.20;99.90;;;;;;5023420;28;20053;-58
2023/09/26 00:05:03;;;;;;;8.63;6.82;;;15.20;99.90;;;;;;5025762;28;20051;-59
2023/09/26 00:07:29;;;;;;;9.18;7.85;;;15.20;99.90;;;;;;5041102;28;20098;-59
2023/09/26 00:09:56;;;;;;;9.85;7.60;;;15.20;99.90;;;;;;5022265;28;20045;-59
2023/09/26 00:12:22;;;;;;;10.10;8.35;;;15.10;99.90;;;;;;5022145;28;20044;-59
2023/09/26 00:14:47;;;;;;;8.35;7.53;;;15.10;99.90;;;;;;5016702;28;20124;-58
2023/09/26 00:17:14;;;;;;;9.18;8.00;;;15.10;99.90;;;;;;5022567;28;20551;-59
2023/09/26 00:19:40;;;;;;;8.30;6.65;;;15.00;99.90;;;;;;5018298;28;20045;-59
2023/09/26 00:22:06;;;;;;;6.82;5.82;;;15.00;99.90;;;;;;5021744;28;20094;-59
2023/09/26 00:24:32;;;;;;;9.88;7.97;;;15.00;99.90;;;;;;5026633;28;20095;-60
2023/09/26 00:26:58;;;;;;;10.73;8.38;;;15.00;99.90;;;;;;5022537;28;20071;-61
2023/09/26 00:29:24;;;;;;;10.05;7.47;;;14.90;99.90;;;;;;5005138;28;20141;-58
2023/09/26 00:31:53;;;;;;;8.95;8.05;;;14.90;99.90;;;;;;5023730;28;20045;-59
2023/09/26 00:34:19;;;;;;;11.52;7.47;;;14.90;99.90;;;;;;5026339;28;20057;-59
2023/09/26 00:36:45;;;;;;;10.07;6.82;;;14.90;99.90;;;;;;5009728;28;20174;-58
2023/09/26 00:39:11;;;;;;;9.95;5.78;;;14.90;99.90;;;;;;5044487;28;20615;-57
2023/09/26 00:41:38;;;;;;;7.00;6.13;;;14.90;99.90;;;;;;5019074;28;20500;-58
2023/09/26 00:44:06;;;;;;;8.10;6.18;;;14.90;99.90;;;;;;5028187;28;20036;-58
2023/09/26 00:46:33;;;;;;;7.30;6.53;;;14.90;99.90;;;;;;5043175;28;20045;-58
2023/09/26 00:49:00;;;;;;;10.63;7.55;;;15.00;99.90;;;;;;5024722;28;20048;-59
2023/09/26 00:51:26;;;;;;;8.40;7.45;;;15.00;99.90;;;;;;5010880;28;20416;-59
2023/09/26 00:53:53;;;;;;;8.57;7.63;;;14.90;99.90;;;;;;5025108;28;20565;-56
2023/09/26 00:56:19;;;;;;;11.77;10.50;;;14.90;99.90;;;;;;4991892;28;20041;-59
2023/09/26 00:58:46;;;;;;;13.13;9.55;;;14.90;99.90;;;;;;5024735;28;20032;-59
2023/09/26 01:01:12;;;;;;;10.38;8.13;;;14.90;99.90;;;;;;5009821;28;20105;-59
2023/09/26 01:03:38;;;;;;;8.65;7.75;;;14.90;99.90;;;;;;5024849;28;20127;-58
2023/09/26 01:06:05;;;;;;;10.38;9.27;;;14.90;99.90;;;;;;5015105;28;20069;-58
2023/09/26 01:08:31;;;;;;;9.73;8.73;;;14.90;99.90;;;;;;5045432;28;20116;-58
2023/09/26 01:11:00;;;;;;;9.88;8.23;;;14.90;99.90;;;;;;5045374;28;20132;-57
2023/09/26 01:13:25;;;;;;;14.23;9.32;;;14.90;99.90;;;;;;5025675;28;20040;-58
2023/09/26 01:15:52;;;;;;;12.63;10.38;;;14.80;99.90;;;;;;5045392;28;20048;-58
2023/09/26 01:18:23;;;;;;;14.35;10.77;;;14.90;99.90;;;;;;5024699;28;20048;-59
2023/09/26 01:20:49;;;;;;;10.40;8.68;;;14.90;99.90;;;;;;5025767;28;20107;-58
2023/09/26 01:23:15;;;;;;;11.38;9.73;;;14.80;99.90;;;;;;5008997;28;20574;-58
2023/09/26 01:25:42;;;;;;;14.43;8.30;;;14.80;99.90;;;;;;5026867;28;20110;-58
2023/09/26 01:28:10;;;;;;;10.15;9.10;;;14.80;99.90;;;;;;4998586;28;20048;-58
2023/09/26 01:30:37;;;;;;;11.38;9.68;;;14.80;99.90;;;;;;5030031;28;20045;-58
2023/09/26 01:33:16;;;;;;;10.77;8.85;;;14.70;99.90;;;;;;5028962;28;20474;-58
2023/09/26 01:35:44;;;;;;;11.93;10.52;;;14.70;99.90;;;;;;5006624;28;20745;-57
2023/09/26 01:38:10;;;;;;;10.98;9.10;;;14.70;99.90;;;;;;5025764;28;20083;-58
2023/09/26 01:40:36;;;;;;;11.38;10.20;;;14.60;99.90;;;;;;5028116;28;20511;-58
2023/09/26 01:43:02;;;;;;;10.70;9.18;;;14.60;99.90;;;;;;5006105;28;20484;-57
2023/09/26 01:45:27;;;;;;;13.30;10.52;;;14.60;99.90;;;;;;5024675;28;20044;-57
2023/09/26 01:47:53;;;;;;;10.40;8.82;;;14.60;99.90;;;;;;5046129;28;20044;-58
2023/09/26 01:50:20;;;;;;;8.68;7.68;;;14.50;99.90;;;;;;5024821;28;20057;-58
2023/09/26 01:52:47;;;;;;;12.38;10.60;;;14.50;99.90;;;;;;5026035;28;20128;-57
2023/09/26 01:55:20;;;;;;;10.82;9.25;;;14.50;99.90;;;;;;5008724;28;20166;-58
2023/09/26 01:57:46;;;;;;;12.45;9.80;;;14.40;99.90;;;;;;5010631;28;20045;-58
2023/09/26 02:00:13;;;;;;;11.20;9.95;;;14.40;99.90;;;;;;5006830;28;20136;-58
2023/09/26 02:02:42;;;;;;;13.20;10.65;;;14.40;99.90;;;;;;5023573;28;20053;-58
2023/09/26 02:05:17;;;;;;;11.93;9.48;;;14.30;99.90;;;;;;5024630;28;20090;-58
2023/09/26 02:07:43;;;;;;;8.55;7.75;;;14.40;99.90;;;;;;5018511;28;20053;-58
2023/09/26 02:10:10;;;;;;;10.82;8.95;;;14.40;99.90;;;;;;5017770;28;20041;-58
2023/09/26 02:12:39;;;;;;;13.63;12.18;;;14.40;99.90;;;;;;5019018;28;20056;-58
2023/09/26 02:15:08;;;;;;;11.48;9.23;;;14.30;99.90;;;;;;5026032;28;20068;-57
2023/09/26 02:17:35;;;;;;;9.82;8.77;;;14.30;99.90;;;;;;5021343;28;20566;-58
2023/09/26 02:20:03;;;;;;;9.80;8.77;;;14.20;99.90;;;;;;5022396;28;20048;-58
2023/09/26 02:22:32;;;;;;;9.02;7.57;;;14.20;99.90;;;;;;5021603;28;20492;-58
2023/09/26 02:24:58;;;;;;;14.23;8.27;;;14.20;99.90;;;;;;5004273;28;20072;-59
2023/09/26 02:27:23;;;;;;;10.10;8.57;;;14.20;99.90;;;;;;5021959;28;20068;-57
2023/09/26 02:29:49;;;;;;;10.65;9.55;;;14.20;99.90;;;;;;5020198;28;20048;-58
2023/09/26 02:32:14;;;;;;;10.88;8.38;;;14.20;99.90;;;;;;5023901;28;20033;-57
2023/09/26 02:34:40;;;;;;;10.82;8.93;;;14.10;99.90;;;;;;5021189;28;20455;-57
2023/09/26 02:37:06;;;;;;;9.73;8.73;;;14.10;99.90;;;;;;5021253;28;20082;-58
2023/09/26 02:39:32;;;;;;;10.70;8.60;;;14.10;99.90;;;;;;5005039;28;20085;-58
2023/09/26 02:41:58;;;;;;;12.65;9.50;;;14.10;99.90;;;;;;5028585;28;20072;-59
2023/09/26 02:44:23;;;;;;;9.93;7.85;;;14.00;99.90;;;;;;5025685;28;20048;-58
2023/09/26 02:46:49;;;;;;;7.68;6.93;;;14.00;99.90;;;;;;5022602;28;20432;-58
2023/09/26 02:49:15;;;;;;;9.77;8.48;;;13.90;99.90;;;;;;5024126;28;20044;-58
2023/09/26 02:51:40;;;;;;;8.48;6.85;;;14.00;99.90;;;;;;5019359;28;20663;-57
2023/09/26 02:54:06;;;;;;;14.20;11.73;;;14.00;99.90;;;;;;5020725;28;20048;-58
2023/09/26 02:56:32;;;;;;;16.70;14.90;;;14.00;99.90;;;;;;5008248;28;20049;-57
2023/09/26 02:58:57;;;;;;;14.50;11.93;;;14.00;99.90;;;;;;5042334;28;20040;-58
2023/09/26 03:01:23;;;;;;;14.60;12.57;;;13.90;99.90;;;;;;5025085;28;20048;-58
2023/09/26 03:03:51;;;;;;;19.10;15.57;;;13.90;99.90;;;;;;5023077;28;20071;-56
2023/09/26 03:06:16;;;;;;;14.13;11.75;;;13.90;99.90;;;;;;5024519;28;20136;-59
2023/09/26 03:08:42;;;;;;;12.45;10.23;;;13.90;99.90;;;;;;5022645;28;20470;-58
2023/09/26 03:11:07;;;;;;;11.65;10.15;;;14.00;99.90;;;;;;5008244;28;20151;-57
2023/09/26 03:13:34;;;;;;;14.85;13.10;;;14.00;99.90;;;;;;5023619;28;20179;-58
2023/09/26 03:16:01;;;;;;;12.38;9.55;;;14.00;99.90;;;;;;5028152;28;20176;-56
2023/09/26 03:18:27;;;;;;;13.07;11.77;;;14.00;99.90;;;;;;5020256;28;20094;-58
2023/09/26 03:20:53;;;;;;;16.85;13.35;;;14.10;99.90;;;;;;5020634;28;20133;-57
2023/09/26 03:23:22;;;;;;;14.18;12.68;;;14.00;99.90;;;;;;5026833;28;20064;-58
2023/09/26 03:25:48;;;;;;;13.38;10.90;;;14.00;99.90;;;;;;5025031;28;20048;-58
2023/09/26 03:28:14;;;;;;;14.80;11.20;;;14.10;99.90;;;;;;5010155;28;20083;-58
2023/09/26 03:30:41;;;;;;;13.07;9.70;;;14.10;99.90;;;;;;5009139;28;20048;-58
2023/09/26 03:33:06;;;;;;;12.02;10.63;;;14.00;99.90;;;;;;5020754;28;20110;-58
2023/09/26 03:35:32;;;;;;;15.18;12.98;;;14.00;99.90;;;;;;5018912;28;20045;-58
2023/09/26 03:37:58;;;;;;;21.02;16.25;;;14.10;99.90;;;;;;5004538;28;20037;-58
2023/09/26 03:40:23;;;;;;;14.70;11.63;;;14.00;99.90;;;;;;5026279;28;20435;-57
2023/09/26 03:42:49;;;;;;;15.10;12.15;;;14.00;99.90;;;;;;5020184;28;20090;-58
2023/09/26 03:45:15;;;;;;;15.98;14.38;;;14.00;99.90;;;;;;5043394;28;20404;-58
2023/09/26 03:47:40;;;;;;;14.23;12.70;;;14.00;99.90;;;;;;5000382;28;20110;-58
2023/09/26 03:50:08;;;;;;;17.77;14.60;;;14.00;99.90;;;;;;5020046;28;20575;-58
2023/09/26 03:52:34;;;;;;;15.02;13.05;;;13.90;99.90;;;;;;5022014;28;20053;-57
2023/09/26 03:54:59;;;;;;;14.45;11.13;;;13.90;99.90;;;;;;5039822;28;20045;-58
2023/09/26 03:57:25;;;;;;;15.13;13.63;;;13.90;99.90;;;;;;5025241;28;20099;-58
2023/09/26 03:59:51;;;;;;;12.68;10.50;;;13.90;99.90;;;;;;5011276;28;20041;-57
2023/09/26 04:02:17;;;;;;;12.65;11.38;;;13.90;99.90;;;;;;5026786;28;20479;-58
2023/09/26 04:04:43;;;;;;;13.13;11.05;;;13.90;99.90;;;;;;5029895;28;20352;-57
2023/09/26 04:07:08;;;;;;;16.65;14.57;;;13.90;99.90;;;;;;5043895;28;20037;-58
2023/09/26 04:09:37;;;;;;;14.05;12.52;;;13.90;99.90;;;;;;5023693;28;20045;-58
2023/09/26 04:12:04;;;;;;;12.55;10.90;;;13.80;99.90;;;;;;5026787;28;20501;-58
2023/09/26 04:14:30;;;;;;;13.75;12.23;;;13.80;99.90;;;;;;5026392;28;20132;-58
2023/09/26 04:16:56;;;;;;;17.98;13.18;;;13.80;99.90;;;;;;5027776;28;20115;-58
2023/09/26 04:19:22;;;;;;;18.20;14.43;;;13.80;99.90;;;;;;5023983;28;20044;-58
2023/09/26 04:21:48;;;;;;;14.40;12.93;;;13.80;99.90;;;;;;5046752;28;20064;-58
2023/09/26 04:24:15;;;;;;;13.85;12.45;;;13.80;99.90;;;;;;5042908;28;20029;-58
2023/09/26 04:26:40;;;;;;;14.80;13.18;;;13.80;99.90;;;;;;5013683;28;20033;-58
2023/09/26 04:29:06;;;;;;;15.25;12.73;;;13.80;99.90;;;;;;5023559;28;20051;-57
2023/09/26 04:31:32;;;;;;;13.73;11.57;;;13.70;99.90;;;;;;4991863;28;20041;-58
2023/09/26 04:33:58;;;;;;;15.57;13.10;;;13.70;99.90;;;;;;5026754;28;20057;-59
2023/09/26 04:36:24;;;;;;;13.73;12.32;;;13.70;99.90;;;;;;5027054;28;21154;-58
2023/09/26 04:38:49;;;;;;;16.67;14.73;;;13.70;99.90;;;;;;5041418;28;20032;-58
2023/09/26 04:41:16;;;;;;;18.90;16.90;;;13.80;99.90;;;;;;5025872;28;20052;-59
2023/09/26 04:43:42;;;;;;;14.68;13.18;;;13.70;99.90;;;;;;5016375;28;20040;-59
2023/09/26 04:46:26;;;;;;;14.00;12.43;;;13.70;99.90;;;;;;5009392;28;20036;-58
2023/09/26 04:48:52;;;;;;;14.10;12.18;;;13.70;99.90;;;;;;5028542;28;20049;-59
2023/09/26 04:51:19;;;;;;;13.02;11.52;;;13.70;99.90;;;;;;5025721;28;20049;-59
2023/09/26 04:53:44;;;;;;;17.40;15.40;;;13.70;99.90;;;;;;5046713;28;20612;-58
2023/09/26 04:56:11;;;;;;;12.63;11.30;;;13.70;99.90;;;;;;4995315;28;20036;-58
2023/09/26 04:58:37;;;;;;;17.05;13.32;;;13.70;99.90;;;;;;5022422;28;20028;-58
2023/09/26 05:01:12;;;;;;;14.65;12.93;;;13.70;99.90;;;;;;5028156;28;20515;-58
2023/09/26 05:03:38;;;;;;;18.48;15.25;;;13.70;99.90;;;;;;5024293;28;20415;-58
2023/09/26 05:06:04;;;;;;;13.80;11.88;;;13.70;99.90;;;;;;5007486;28;20037;-58
2023/09/26 05:08:29;;;;;;;17.40;12.30;;;13.70;99.90;;;;;;5024902;28;20451;-59
2023/09/26 05:10:55;;;;;;;16.60;14.88;;;13.70;99.90;;;;;;5010070;28;20451;-59
2023/09/26 05:13:21;;;;;;;14.45;12.27;;;13.60;99.90;;;;;;5026289;28;20417;-58
2023/09/26 05:15:46;;;;;;;13.05;11.65;;;13.60;99.90;;;;;;5027627;28;20043;-58
2023/09/26 05:18:12;;;;;;;14.75;13.07;;;13.70;99.90;;;;;;5022274;28;20131;-58
2023/09/26 05:20:38;;;;;;;15.43;13.82;;;13.70;99.90;;;;;;5030648;28;20528;-58
2023/09/26 05:23:04;;;;;;;15.38;12.80;;;13.60;99.90;;;;;;5044157;28;20044;-59
2023/09/26 05:25:32;;;;;;;14.68;13.15;;;13.70;99.90;;;;;;5029153;28;20044;-59
2023/09/26 05:27:57;;;;;;;20.90;16.55;;;13.70;99.90;;;;;;5043480;28;20033;-59
2023/09/26 05:30:23;;;;;;;17.30;13.48;;;13.60;99.90;;;;;;5025023;28;20063;-59
2023/09/26 05:32:49;;;;;;;12.55;11.20;;;13.60;99.90;;;;;;5042128;28;20431;-58
2023/09/26 05:35:15;;;;;;;19.83;15.70;;;13.60;99.90;;;;;;5019787;28;20385;-58
2023/09/26 05:37:40;;;;;;;17.92;13.43;;;13.60;99.90;;;;;;5026140;28;20132;-57
2023/09/26 05:40:07;;;;;;;15.48;13.10;;;13.60;99.90;;;;;;5046005;28;20037;-58
2023/09/26 05:42:34;;;;;;;14.13;12.63;;;13.60;99.90;;;;;;5024802;28;20047;-59
2023/09/26 05:44:59;;;;;;;17.77;15.70;;;13.60;99.90;;;;;;5024400;28;20048;-57
2023/09/26 05:47:25;;;;;;;14.60;13.10;;;13.60;99.90;;;;;;5017674;28;20399;-57
2023/09/26 05:49:52;;;;;;;15.68;13.35;;;13.60;99.90;;;;;;5024855;28;20567;-58
2023/09/26 05:52:20;;;;;;;16.05;13.65;;;13.70;99.90;;;;;;5023087;28;20055;-58
2023/09/26 05:54:46;;;;;;;17.35;14.65;;;13.60;99.90;;;;;;4993196;28;20504;-58
2023/09/26 05:57:13;;;;;;;17.30;15.52;;;13.70;99.90;;;;;;5042004;28;20070;-58
2023/09/26 05:59:39;;;;;;;17.40;14.30;;;13.70;99.90;;;;;;5021456;28;20049;-59
2023/09/26 06:02:06;;;;;;;15.68;13.75;;;13.70;99.90;;;;;;5026239;28;20510;-58
2023/09/26 06:04:32;;;;;;;15.98;14.25;;;13.70;99.90;;;;;;5003102;28;20131;-58
2023/09/26 06:06:58;;;;;;;14.43;12.68;;;13.80;99.90;;;;;;5018006;28;20123;-56
2023/09/26 06:09:23;;;;;;;14.73;13.27;;;13.80;99.90;;;;;;5007476;28;20052;-57
2023/09/26 06:11:49;;;;;;;13.63;12.02;;;13.80;99.90;;;;;;5026461;28;20064;-58
2023/09/26 06:14:15;;;;;;;16.02;14.38;;;13.80;99.90;;;;;;5023220;28;20057;-58
2023/09/26 06:16:41;;;;;;;14.60;12.88;;;13.90;99.90;;;;;;5021011;28;20041;-58
2023/09/26 06:19:06;;;;;;;17.27;15.00;;;14.00;99.90;;;;;;5016826;28;20518;-57
2023/09/26 06:21:32;;;;;;;16.50;14.90;;;14.00;99.90;;;;;;5027591;28;20049;-57
2023/09/26 06:23:58;;;;;;;17.20;15.40;;;14.00;99.90;;;;;;5029174;28;20207;-58
2023/09/26 06:26:24;;;;;;;16.00;14.40;;;14.10;99.90;;;;;;5024840;28;20044;-58
2023/09/26 06:28:49;;;;;;;16.23;14.00;;;14.10;99.90;;;;;;5022110;28;20459;-58
2023/09/26 06:31:15;;;;;;;17.08;15.02;;;14.20;99.90;;;;;;5023405;28;20114;-58
2023/09/26 06:33:41;;;;;;;15.65;13.32;;;14.30;99.90;;;;;;5022709;28;20068;-58
2023/09/26 06:36:11;;;;;;;14.52;11.75;;;14.30;99.90;;;;;;5023450;28;20040;-59
2023/09/26 06:38:37;;;;;;;17.67;15.45;;;14.30;99.90;;;;;;5020646;28;20064;-58
2023/09/26 06:41:05;;;;;;;19.25;16.73;;;14.40;99.90;;;;;;5043579;28;20041;-57
2023/09/26 06:43:30;;;;;;;18.90;16.90;;;14.40;99.90;;;;;;5021361;28;20037;-58
2023/09/26 06:45:56;;;;;;;16.65;14.90;;;14.50;99.90;;;;;;5012476;28;20504;-58
2023/09/26 06:48:23;;;;;;;16.98;14.77;;;14.50;99.90;;;;;;5035796;28;20041;-58
2023/09/26 06:50:49;;;;;;;17.27;15.52;;;14.50;99.90;;;;;;5015751;28;20524;-59
2023/09/26 06:53:14;;;;;;;16.38;14.48;;;14.60;99.90;;;;;;5022390;28;20162;-58
2023/09/26 06:55:40;;;;;;;17.10;15.07;;;14.70;99.90;;;;;;5024874;28;20518;-58
2023/09/26 06:58:06;;;;;;;18.08;15.48;;;14.70;99.90;;;;;;4991910;28;20034;-57
2023/09/26 07:00:35;;;;;;;18.20;13.82;;;14.80;99.90;;;;;;5004237;28;20084;-57
2023/09/26 07:03:02;;;;;;;19.02;15.35;;;14.90;99.90;;;;;;5025828;28;20040;-59
2023/09/26 07:05:28;;;;;;;17.38;14.82;;;14.90;99.90;;;;;;5023988;28;20052;-58
2023/09/26 07:07:54;;;;;;;17.15;15.45;;;14.90;99.90;;;;;;5025017;28;20052;-58
2023/09/26 07:10:22;;;;;;;17.77;15.88;;;15.00;99.90;;;;;;5009229;28;20037;-58
2023/09/26 07:12:48;;;;;;;17.08;14.45;;;15.10;99.90;;;;;;5023909;28;20045;-58
2023/09/26 07:15:14;;;;;;;17.67;14.95;;;15.10;99.90;;;;;;5007548;28;20315;-58
2023/09/26 07:17:40;;;;;;;16.27;14.20;;;15.10;99.90;;;;;;5043995;28;20507;-58
2023/09/26 07:20:13;;;;;;;18.02;14.63;;;15.20;99.90;;;;;;5024782;28;20436;-59
2023/09/26 07:22:41;;;;;;;19.65;15.82;;;15.20;99.90;;;;;;5022618;28;20162;-59
2023/09/26 07:25:08;;;;;;;15.00;13.18;;;15.30;99.90;;;;;;5027877;28;20123;-58
2023/09/26 07:27:34;;;;;;;16.17;14.48;;;15.30;99.90;;;;;;5006180;28;20037;-59
2023/09/26 07:30:00;;;;;;;13.85;12.40;;;15.30;99.90;;;;;;5022618;28;20381;-58
2023/09/26 07:32:26;;;;;;;15.40;13.90;;;15.40;99.90;;;;;;5022971;28;20131;-57
2023/09/26 07:34:54;;;;;;;16.17;14.57;;;15.40;99.90;;;;;;5006087;28;20183;-58
2023/09/26 07:37:21;;;;;;;16.13;14.43;;;15.40;99.90;;;;;;5023337;28;20044;-58
2023/09/26 07:39:51;;;;;;;14.13;12.68;;;15.50;99.90;;;;;;5021194;28;20048;-57
2023/09/26 07:42:19;;;;;;;17.55;14.43;;;15.50;99.90;;;;;;5032691;28;20404;-58
2023/09/26 07:44:45;;;;;;;15.82;13.88;;;15.50;99.90;;;;;;5040208;28;20175;-58
2023/09/26 07:47:11;;;;;;;18.02;13.48;;;15.50;99.90;;;;;;5019362;28;20125;-58
2023/09/26 07:49:37;;;;;;;16.45;14.60;;;15.60;99.90;;;;;;5025155;28;20049;-59
2023/09/26 07:52:03;;;;;;;15.60;14.00;;;15.60;99.90;;;;;;5024313;28;20067;-59
2023/09/26 07:54:32;;;;;;;16.10;13.80;;;15.70;99.90;;;;;;5026495;28;20047;-60
2023/09/26 07:56:58;;;;;;;17.08;15.25;;;15.80;99.90;;;;;;5008671;28;20500;-59
2023/09/26 07:59:24;;;;;;;17.75;13.82;;;15.90;99.90;;;;;;5044824;28;20052;-59
2023/09/26 08:01:50;;;;;;;17.05;13.35;;;16.10;99.90;;;;;;5026032;28;20029;-59
2023/09/26 08:04:15;;;;;;;19.20;14.13;;;16.20;99.90;;;;;;5028649;28;20090;-58
2023/09/26 08:06:41;;;;;;;18.15;14.50;;;16.20;99.90;;;;;;5018672;28;20144;-58
2023/09/26 08:09:07;;;;;;;16.60;12.93;;;16.30;99.90;;;;;;5020041;28;20044;-59
2023/09/26 08:11:32;;;;;;;17.20;13.80;;;16.20;99.90;;;;;;5019397;28;20067;-58
2023/09/26 08:13:58;;;;;;;15.55;12.93;;;16.20;99.90;;;;;;5015367;28;20493;-58
2023/09/26 08:16:24;;;;;;;17.25;14.02;;;16.20;99.90;;;;;;5021130;28;20045;-57
2023/09/26 08:18:50;;;;;;;14.90;13.38;;;16.20;99.90;;;;;;5019584;28;20037;-57
2023/09/26 08:21:16;;;;;;;16.92;14.35;;;16.20;99.90;;;;;;5020503;28;20044;-58
2023/09/26 08:23:42;;;;;;;17.95;14.02;;;16.20;99.90;;;;;;5023189;28;20046;-59
2023/09/26 08:26:11;;;;;;;17.38;14.50;;;16.30;99.90;;;;;;5019117;28;20099;-59
2023/09/26 08:28:41;;;;;;;15.73;13.23;;;16.30;99.90;;;;;;5022985;28;20088;-58
2023/09/26 08:31:11;;;;;;;14.32;11.70;;;16.40;99.90;;;;;;5007158;28;20044;-58
2023/09/26 08:33:37;;;;;;;14.50;11.85;;;16.40;99.90;;;;;;5022676;28;20664;-58
2023/09/26 08:36:21;;;;;;;14.48;12.98;;;16.50;99.90;;;;;;5023914;28;20539;-58
2023/09/26 08:38:49;;;;;;;16.88;13.55;;;16.60;99.90;;;;;;5026270;28;20045;-59
2023/09/26 08:41:19;;;;;;;15.30;13.00;;;16.60;99.90;;;;;;5017840;28;20099;-57
2023/09/26 08:43:46;;;;;;;15.73;12.48;;;16.70;99.90;;;;;;5021373;28;20038;-57
2023/09/26 08:46:12;;;;;;;13.73;12.32;;;16.80;99.90;;;;;;5012910;28;20492;-59
2023/09/26 08:48:39;;;;;;;16.25;12.93;;;16.90;99.90;;;;;;5024615;28;20079;-59
2023/09/26 08:51:05;;;;;;;16.70;12.93;;;17.00;99.90;;;;;;5012479;28;20046;-59
2023/09/26 08:53:31;;;;;;;15.50;12.23;;;17.00;99.90;;;;;;5030753;28;20075;-59
2023/09/26 08:55:57;;;;;;;18.00;12.80;;;17.10;99.90;;;;;;5046135;28;20076;-59
2023/09/26 08:58:25;;;;;;;13.68;12.13;;;17.10;99.90;;;;;;5023297;28;20103;-58
2023/09/26 09:00:51;;;;;;;14.48;12.20;;;17.20;99.90;;;;;;5023525;28;20136;-58
2023/09/26 09:03:16;;;;;;;13.38;11.98;;;17.20;99.90;;;;;;5027271;28;20127;-59
2023/09/26 09:05:42;;;;;;;14.88;12.02;;;17.30;99.90;;;;;;5027559;28;20068;-58
2023/09/26 09:08:15;;;;;;;14.52;11.93;;;17.40;99.90;;;;;;5026627;28;20041;-60
2023/09/26 09:11:07;;;;;;;15.45;13.18;;;17.50;99.90;;;;;;5023944;28;20037;-58
2023/09/26 09:13:37;;;;;;;16.00;11.43;;;17.40;99.90;;;;;;5026885;28;20140;-59
2023/09/26 09:16:10;;;;;;;13.55;11.50;;;17.50;99.90;;;;;;5022766;28;20041;-59
2023/09/26 09:18:37;;;;;;;14.07;11.85;;;17.50;99.90;;;;;;5041921;28;20052;-59
2023/09/26 09:21:33;;;;;;;13.93;11.48;;;17.50;99.90;;;;;;5026846;28;20052;-59
2023/09/26 09:24:06;;;;;;;14.48;11.52;;;17.60;99.90;;;;;;5010248;28;20178;-59
2023/09/26 09:26:35;;;;;;;14.35;11.82;;;17.60;99.90;;;;;;5001328;28;20045;-59
2023/09/26 09:29:21;;;;;;;15.30;11.00;;;17.60;99.90;;;;;;5030124;28;20836;-57
2023/09/26 09:31:47;;;;;;;13.68;11.48;;;17.70;99.90;;;;;;5029799;28;20071;-59
2023/09/26 09:34:15;;;;;;;12.98;10.32;;;17.70;99.90;;;;;;5045176;28;20029;-59
2023/09/26 09:36:43;;;;;;;11.73;10.30;;;17.80;99.90;;;;;;5026150;28;20492;-59
2023/09/26 09:39:09;;;;;;;12.52;10.02;;;17.80;99.90;;;;;;5010818;28;20080;-59
2023/09/26 09:41:41;;;;;;;12.60;10.45;;;17.80;99.90;;;;;;5030475;28;20152;-59
2023/09/26 09:44:07;;;;;;;11.95;10.23;;;17.80;99.90;;;;;;5032018;28;20037;-58
2023/09/26 09:46:40;;;;;;;14.48;11.63;;;17.80;99.90;;;;;;5025894;28;20550;-59
2023/09/26 09:49:11;;;;;;;12.32;10.35;;;17.90;99.90;;;;;;5022751;28;20044;-59
2023/09/26 09:51:45;;;;;;;17.23;10.32;;;17.90;99.90;;;;;;5012867;28;20488;-59
2023/09/26 09:54:13;;;;;;;13.38;10.68;;;17.90;99.90;;;;;;5022740;28;20120;-59
2023/09/26 09:56:39;;;;;;;12.90;10.82;;;18.00;99.90;;;;;;5028571;28;20404;-59
2023/09/26 09:59:12;;;;;;;14.82;10.93;;;18.00;99.90;;;;;;5023002;28;20352;-58
2023/09/26 10:01:44;;;;;;;14.68;10.63;;;18.10;99.90;;;;;;5025015;28;20147;-57
2023/09/26 10:04:10;;;;;;;11.60;10.43;;;18.20;99.90;;;;;;5023460;28;20040;-59
2023/09/26 10:06:38;;;;;;;16.55;10.43;;;18.30;99.90;;;;;;5028900;28;20112;-58
2023/09/26 10:09:06;;;;;;;15.27;9.75;;;18.40;99.90;;;;;;5004646;28;20099;-59
2023/09/26 10:11:33;;;;;;;14.43;10.70;;;18.40;99.90;;;;;;5029547;28;20040;-57
2023/09/26 10:13:58;;;;;;;13.27;10.27;;;18.50;99.90;;;;;;5029958;28;20040;-58
2023/09/26 10:16:25;;;;;;;10.98;9.77;;;18.50;99.90;;;;;;5024329;28;20403;-59
2023/09/26 10:18:51;;;;;;;13.75;10.35;;;18.60;99.90;;;;;;5030187;28;20044;-59
2023/09/26 10:21:27;;;;;;;12.95;10.90;;;18.60;99.90;;;;;;5048554;28;20037;-58
2023/09/26 10:24:05;;;;;;;14.05;11.10;;;18.70;99.90;;;;;;5028073;28;20045;-59
2023/09/26 10:26:43;;;;;;;13.50;9.65;;;18.70;99.90;;;;;;5007766;28;20091;-59
2023/09/26 10:29:18;;;;;;;12.68;9.75;;;18.80;99.90;;;;;;5032112;28;20060;-60
2023/09/26 10:31:53;;;;;;;13.50;9.88;;;18.90;99.90;;;;;;5045287;28;20099;-58
2023/09/26 10:34:37;;;;;;;12.27;10.25;;;18.90;99.90;;;;;;5043279;28;20042;-56
2023/09/26 10:37:07;;;;;;;12.50;8.80;;;18.90;99.90;;;;;;5039080;28;20059;-59
2023/09/26 10:39:38;;;;;;;14.48;10.23;;;19.00;99.90;;;;;;5026369;28;20045;-59
2023/09/26 10:42:14;;;;;;;12.75;8.30;;;19.10;99.90;;;;;;5028440;28;20041;-60
2023/09/26 10:44:42;;;;;;;12.68;8.52;;;19.10;99.90;;;;;;5020217;28;20053;-59
2023/09/26 10:47:08;;;;;;;15.63;8.15;;;19.30;99.90;;;;;;5045916;28;20455;-58
2023/09/26 10:49:34;;;;;;;11.35;8.23;;;19.40;99.90;;;;;;5015491;28;20135;-60
2023/09/26 10:52:03;;;;;;;9.45;7.88;;;19.40;99.90;;;;;;5025623;28;20128;-58
2023/09/26 10:54:30;;;;;;;10.80;8.13;;;19.50;99.90;;;;;;5025600;28;20504;-60
2023/09/26 10:56:59;;;;;;;11.20;7.70;;;19.50;99.90;;;;;;5024657;28;20076;-57
2023/09/26 10:59:32;;;;;;;11.88;7.55;;;19.50;99.90;;;;;;5024826;28;20141;-59
2023/09/26 11:01:59;;;;;;;11.00;7.53;;;19.50;99.90;;;;;;5028653;28;20028;-59
2023/09/26 11:04:31;;;;;;;10.32;7.47;;;19.60;99.90;;;;;;5046544;28;20037;-59
2023/09/26 11:07:00;;;;;;;9.68;7.45;;;19.60;99.90;;;;;;5012279;28;20041;-59
2023/09/26 11:09:27;;;;;;;13.00;7.93;;;19.70;99.90;;;;;;5019579;28;20041;-56
2023/09/26 11:11:56;;;;;;;12.30;7.10;;;19.70;99.90;;;;;;5024476;28;20061;-58
2023/09/26 11:14:26;;;;;;;11.65;6.82;;;19.80;99.90;;;;;;5023579;28;20079;-59
2023/09/26 11:16:52;;;;;;;12.98;7.32;;;20.20;99.90;;;;;;5022121;28;20044;-59
2023/09/26 11:19:21;;;;;;;9.35;6.07;;;20.50;99.90;;;;;;5025178;28;20097;-60
2023/09/26 11:21:48;;;;;;;8.48;7.05;;;20.80;99.90;;;;;;5014668;28;20492;-59
2023/09/26 11:24:23;;;;;;;10.75;6.63;;;20.90;99.90;;;;;;5043605;28;20094;-59
2023/09/26 11:26:56;;;;;;;10.15;7.20;;;21.10;99.90;;;;;;5025066;28;20049;-55
2023/09/26 11:29:23;;;;;;;11.73;6.15;;;21.40;99.90;;;;;;5047025;28;20037;-58
2023/09/26 11:31:52;;;;;;;7.53;6.22;;;21.60;99.90;;;;;;5026216;28;20049;-58
2023/09/26 11:34:19;;;;;;;9.13;5.13;;;21.80;99.90;;;;;;5025923;28;20033;-57
2023/09/26 11:36:45;;;;;;;8.70;5.45;;;21.80;99.90;;;;;;5028675;28;20128;-59
2023/09/26 11:39:16;;;;;;;7.15;5.10;;;21.90;99.90;;;;;;5027858;28;20120;-58
2023/09/26 11:41:42;;;;;;;7.40;5.18;;;22.00;99.90;;;;;;5026391;28;20053;-58
2023/09/26 11:44:13;;;;;;;11.27;5.13;;;21.90;99.90;;;;;;5015435;28;20032;-59
2023/09/26 11:46:49;;;;;;;8.43;6.20;;;21.90;99.90;;;;;;5031181;28;20033;-59
2023/09/26 11:49:17;;;;;;;8.63;5.63;;;22.10;99.90;;;;;;5042512;28;20072;-59
2023/09/26 11:51:43;;;;;;;9.65;5.40;;;22.30;99.90;;;;;;5010061;28;20463;-59
2023/09/26 11:54:10;;;;;;;7.80;5.90;;;22.50;99.90;;;;;;5010374;28;20049;-59
2023/09/26 11:56:36;;;;;;;9.68;5.47;;;22.60;99.90;;;;;;5022740;28;20053;-59
2023/09/26 11:59:06;;;;;;;8.13;5.53;;;22.60;99.90;;;;;;5024517;28;20051;-57
2023/09/26 12:01:32;;;;;;;9.52;5.40;;;22.70;99.90;;;;;;5030779;28;20190;-56
2023/09/26 12:04:04;;;;;;;9.60;5.65;;;22.70;99.90;;;;;;5025853;28;20045;-58
2023/09/26 12:06:31;;;;;;;8.77;5.55;;;22.80;99.90;;;;;;5019638;28;20041;-58
2023/09/26 12:08:57;;;;;;;9.73;5.90;;;22.70;99.90;;;;;;5023652;28;20080;-58
2023/09/26 12:11:23;;;;;;;8.32;4.93;;;22.80;99.90;;;;;;5023702;28;20072;-57
2023/09/26 12:13:49;;;;;;;8.50;5.97;;;22.90;99.90;;;;;;5009731;28;20048;-59
2023/09/26 12:16:14;;;;;;;7.40;4.47;;;22.80;99.90;;;;;;5020433;28;20476;-58
2023/09/26 12:18:40;;;;;;;7.80;4.78;;;22.90;99.90;;;;;;5026355;28;20041;-60
2023/09/26 12:21:06;;;;;;;9.07;5.22;;;22.90;99.90;;;;;;5030172;28;20535;-59
2023/09/26 12:23:32;;;;;;;10.52;5.20;;;23.20;99.90;;;;;;5032697;28;20052;-60
2023/09/26 12:25:57;;;;;;;8.35;5.18;;;23.30;99.90;;;;;;5014232;28;20431;-58
2023/09/26 12:28:23;;;;;;;10.02;5.60;;;23.20;99.90;;;;;;5034473;28;20645;-59
2023/09/26 12:30:49;;;;;;;7.55;4.57;;;23.30;99.90;;;;;;4997328;28;21593;-60
2023/09/26 12:33:14;;;;;;;9.57;4.88;;;23.20;99.90;;;;;;5027375;28;20060;-58